Time;durP1;ratioP1;P1;durP2;ratioP2;P2;SDS_P1;SDS_P2;PMS_P1;PMS_P2;Temp;Humidity;BMP_temperature;BMP_pressure;BME280_temperature;BME280_humidity;BME280_pressure;Samples;Min_cycle;Max_cycle;Signal;HPM_P1;HPM_P2
2024/01/15 00:02:22;;;;;;;;;;;2.50;99.90;;;;;;5061825;28;19921;-76
2024/01/15 00:04:47;;;;;;;;;;;2.50;99.90;;;;;;5046885;28;19952;-77
2024/01/15 00:07:13;;;;;;;;;;;2.50;99.90;;;;;;5065244;28;19966;-77
2024/01/15 00:09:39;;;;;;;;;;;2.40;99.90;;;;;;5068661;28;19973;-77
2024/01/15 00:12:05;;;;;;;;;;;2.20;99.90;;;;;;5049960;28;20015;-77
2024/01/15 00:14:30;;;;;;;;;;;2.10;99.90;;;;;;5048601;28;20004;-77
2024/01/15 00:16:57;;;;;;;;;;;2.00;99.90;;;;;;5062037;28;19951;-78
2024/01/15 00:19:23;;;;;;;;;;;1.90;99.90;;;;;;5061024;28;20715;-78
2024/01/15 00:21:49;;;;;;;;;;;1.90;99.90;;;;;;5061182;28;19966;-77
2024/01/15 00:24:15;;;;;;;;;;;1.70;99.90;;;;;;5045207;28;19932;-77
2024/01/15 00:26:40;;;;;;;;;;;3.80;99.90;;;;;;5054121;28;19944;-76
2024/01/15 00:29:09;;;;;;;;;;;1.80;99.90;;;;;;5050365;28;20365;-76
2024/01/15 00:31:35;;;;;;;;;;;1.80;99.90;;;;;;5037457;28;19951;-77
2024/01/15 00:34:00;;;;;;;;;;;1.70;99.90;;;;;;5065332;28;19932;-77
2024/01/15 00:36:26;;;;;;;;;;;2.00;99.90;;;;;;5043910;28;19944;-77
2024/01/15 00:38:52;;;;;;;;;;;1.80;99.90;;;;;;5061535;28;20014;-77
2024/01/15 00:41:21;;;;;;;;;;;1.80;99.90;;;;;;5064339;28;20356;-76
2024/01/15 00:43:46;;;;;;;;;;;2.00;99.90;;;;;;5062690;28;19967;-77
2024/01/15 00:46:12;;;;;;;;;;;1.80;99.90;;;;;;5048799;28;19920;-78
2024/01/15 00:48:37;;;;;;;;;;;1.80;99.90;;;;;;5042222;28;19974;-76
2024/01/15 00:51:04;;;;;;;;;;;1.80;99.90;;;;;;5044332;28;20292;-77
2024/01/15 00:53:29;;;;;;;;;;;1.80;99.90;;;;;;5042207;28;20393;-77
2024/01/15 00:55:55;;;;;;;;;;;1.90;99.90;;;;;;5049593;28;19921;-78
2024/01/15 00:58:20;;;;;;;;;;;1.90;99.90;;;;;;5034724;28;20426;-77
2024/01/15 01:00:46;;;;;;;;;;;1.90;99.90;;;;;;5041052;28;20394;-76
2024/01/15 01:03:12;;;;;;;;;;;2.00;99.90;;;;;;5068831;28;20019;-76
2024/01/15 01:05:37;;;;;;;;;;;2.00;99.90;;;;;;5053799;28;19920;-77
2024/01/15 01:08:03;;;;;;;;;;;2.00;99.90;;;;;;5068210;28;19977;-77
2024/01/15 01:10:28;;;;;;;;;;;2.00;99.90;;;;;;5049523;28;20303;-76
2024/01/15 01:12:54;;;;;;;;;;;2.00;99.90;;;;;;5062168;28;20442;-77
2024/01/15 01:15:20;;;;;;;;;;;2.00;99.90;;;;;;5050758;28;20013;-76
2024/01/15 01:17:46;;;;;;;;;;;2.00;99.90;;;;;;5047568;28;19983;-75
2024/01/15 01:20:11;;;;;;;;;;;1.90;99.90;;;;;;5051438;28;20220;-77
2024/01/15 01:22:37;;;;;;;;;;;1.90;99.90;;;;;;5052464;28;20295;-76
2024/01/15 01:25:02;;;;;;;;;;;1.90;99.90;;;;;;5045898;28;19925;-77
2024/01/15 01:27:28;;;;;;;;;;;1.90;99.90;;;;;;5045513;28;19920;-77
2024/01/15 01:29:53;;;;;;;;;;;1.90;99.90;;;;;;5050196;28;19931;-77
2024/01/15 01:32:19;;;;;;;;;;;1.90;99.90;;;;;;5050286;28;19920;-77
2024/01/15 01:34:44;;;;;;;;;;;1.90;99.90;;;;;;5049329;28;19925;-77
2024/01/15 01:37:13;;;;;;;;;;;2.00;99.90;;;;;;5050789;28;20007;-76
2024/01/15 01:39:38;;;;;;;;;;;2.10;99.90;;;;;;5051802;28;19935;-76
2024/01/15 01:42:04;;;;;;;;;;;2.00;99.90;;;;;;5051724;28;19928;-77
2024/01/15 01:44:30;;;;;;;;;;;2.00;99.90;;;;;;5047897;28;20019;-77
2024/01/15 01:46:56;;;;;;;;;;;3.20;99.90;;;;;;5049164;28;19921;-77
2024/01/15 01:49:23;;;;;;;;;;;2.90;99.90;;;;;;5050780;28;20455;-77
2024/01/15 01:51:48;;;;;;;;;;;2.10;99.90;;;;;;5040389;28;19920;-78
2024/01/15 01:54:14;;;;;;;;;;;2.30;99.90;;;;;;5050110;28;20344;-78
2024/01/15 01:56:40;;;;;;;;;;;2.10;99.90;;;;;;5050770;28;20422;-77
2024/01/15 01:59:07;;;;;;;;;;;2.20;99.90;;;;;;5048386;28;19927;-77
2024/01/15 02:01:32;;;;;;;;;;;2.70;99.90;;;;;;5050793;28;20300;-78
2024/01/15 02:03:58;;;;;;;;;;;2.30;99.90;;;;;;5050397;28;19920;-78
2024/01/15 02:06:24;;;;;;;;;;;2.30;99.90;;;;;;5050619;28;19967;-77
2024/01/15 02:08:50;;;;;;;;;;;2.40;99.90;;;;;;5046247;28;19921;-77
2024/01/15 02:11:15;;;;;;;;;;;2.40;99.90;;;;;;5051105;28;20372;-77
2024/01/15 02:13:41;;;;;;;;;;;2.40;99.90;;;;;;5049771;28;19932;-77
2024/01/15 02:16:07;;;;;;;;;;;2.80;99.90;;;;;;5051023;28;19947;-78
2024/01/15 02:18:39;;;;;;;;;;;2.50;99.90;;;;;;5069417;28;20372;-78
2024/01/15 02:21:05;;;;;;;;;;;2.60;99.90;;;;;;5037246;28;19924;-77
2024/01/15 02:23:30;;;;;;;;;;;2.50;99.90;;;;;;5051556;28;19920;-77
2024/01/15 02:25:56;;;;;;;;;;;2.50;99.90;;;;;;5039606;28;19923;-77
2024/01/15 02:28:22;;;;;;;;;;;3.10;99.90;;;;;;5052200;28;19920;-77
2024/01/15 02:30:47;;;;;;;;;;;2.60;99.90;;;;;;5064957;28;19921;-77
2024/01/15 02:33:13;;;;;;;;;;;2.60;99.90;;;;;;5061660;28;19959;-76
2024/01/15 02:35:38;;;;;;;;;;;2.60;99.90;;;;;;5067563;28;19920;-77
2024/01/15 02:38:04;;;;;;;;;;;2.60;99.90;;;;;;5069798;28;19924;-77
2024/01/15 02:40:30;;;;;;;;;;;2.70;99.90;;;;;;5070376;28;19927;-77
2024/01/15 02:42:55;;;;;;;;;;;2.70;99.90;;;;;;5051783;28;19928;-77
2024/01/15 02:45:22;;;;;;;;;;;2.90;99.90;;;;;;5069568;28;20030;-77
2024/01/15 02:47:47;;;;;;;;;;;2.80;99.90;;;;;;5069733;28;19994;-77
2024/01/15 02:50:13;;;;;;;;;;;2.80;99.90;;;;;;5043106;28;20007;-77
2024/01/15 02:52:39;;;;;;;;;;;2.90;99.90;;;;;;5071085;28;20435;-76
2024/01/15 02:55:05;;;;;;;;;;;3.00;99.90;;;;;;5057948;28;19925;-76
2024/01/15 02:57:30;;;;;;;;;;;3.00;99.90;;;;;;5048291;28;20015;-76
2024/01/15 02:59:56;;;;;;;;;;;3.00;99.90;;;;;;5045294;28;19920;-76
2024/01/15 03:02:21;;;;;;;;;;;3.00;99.90;;;;;;5055713;28;20190;-77
2024/01/15 03:04:47;;;;;;;;;;;3.00;99.90;;;;;;5069181;28;19920;-76
2024/01/15 03:07:13;;;;;;;;;;;2.90;99.90;;;;;;5052692;28;20017;-76
2024/01/15 03:09:38;;;;;;;;;;;2.90;99.90;;;;;;5046044;28;20055;-77
2024/01/15 03:12:04;;;;;;;;;;;2.80;99.90;;;;;;5047048;28;19950;-77
2024/01/15 03:14:29;;;;;;;;;;;2.80;99.90;;;;;;5067234;28;19924;-76
2024/01/15 03:16:55;;;;;;;;;;;2.70;99.90;;;;;;5064696;28;19921;-77
2024/01/15 03:19:21;;;;;;;;;;;2.70;99.90;;;;;;5067948;28;19932;-76
2024/01/15 03:21:46;;;;;;;;;;;2.70;99.90;;;;;;5070154;28;20282;-76
2024/01/15 03:24:12;;;;;;;;;;;2.70;99.90;;;;;;5038538;28;19974;-76
2024/01/15 03:26:37;;;;;;;;;;;2.90;99.90;;;;;;5069347;28;19931;-76
2024/01/15 03:29:03;;;;;;;;;;;2.70;99.90;;;;;;5042406;28;19925;-76
2024/01/15 03:31:28;;;;;;;;;;;2.60;99.90;;;;;;5059005;28;19932;-76
2024/01/15 03:33:54;;;;;;;;;;;2.50;99.90;;;;;;5043842;28;19920;-77
2024/01/15 03:36:19;;;;;;;;;;;2.60;99.90;;;;;;5035201;28;20020;-76
2024/01/15 03:38:45;;;;;;;;;;;2.80;99.90;;;;;;5069030;28;19960;-76
2024/01/15 03:41:10;;;;;;;;;;;2.70;99.90;;;;;;5052103;28;19971;-77
2024/01/15 03:43:36;;;;;;;;;;;2.50;99.90;;;;;;5069395;28;19924;-77
2024/01/15 03:46:02;;;;;;;;;;;2.50;99.90;;;;;;5068387;28;19920;-76
2024/01/15 03:48:27;;;;;;;;;;;2.50;99.90;;;;;;5050675;28;19927;-78
2024/01/15 03:50:53;;;;;;;;;;;2.50;99.90;;;;;;5050593;28;20296;-76
2024/01/15 03:53:18;;;;;;;;;;;2.40;99.90;;;;;;5051053;28;20006;-76
2024/01/15 03:55:44;;;;;;;;;;;2.50;99.90;;;;;;5051718;28;19920;-77
2024/01/15 03:58:10;;;;;;;;;;;2.40;99.90;;;;;;5038847;28;19921;-75
2024/01/15 04:00:35;;;;;;;;;;;2.40;99.90;;;;;;5040328;28;19974;-75
2024/01/15 04:03:01;;;;;;;;;;;4.30;99.90;;;;;;5050639;28;20342;-75
2024/01/15 04:05:26;;;;;;;;;;;2.50;99.90;;;;;;5052300;28;20003;-75
2024/01/15 04:07:52;;;;;;;;;;;2.50;99.90;;;;;;5064648;28;19924;-74
2024/01/15 04:10:18;;;;;;;;;;;2.60;99.90;;;;;;5045531;28;19921;-75
2024/01/15 04:12:43;;;;;;;;;;;2.70;99.90;;;;;;5047784;28;19920;-75
2024/01/15 04:15:09;;;;;;;;;;;2.80;99.90;;;;;;5027134;28;19925;-75
2024/01/15 04:17:34;;;;;;;;;;;2.90;99.90;;;;;;5038661;28;19936;-76
2024/01/15 04:20:00;;;;;;;;;;;3.00;99.90;;;;;;5024538;28;19927;-77
2024/01/15 04:22:26;;;;;;;;;;;3.20;99.90;;;;;;5047640;28;19921;-75
2024/01/15 04:24:52;;;;;;;;;;;3.00;99.90;;;;;;5045122;28;19920;-74
2024/01/15 04:27:17;;;;;;;;;;;3.20;99.90;;;;;;5049459;28;20395;-74
2024/01/15 04:29:44;;;;;;;;;;;3.00;99.90;;;;;;5047529;28;20334;-75
2024/01/15 04:32:10;;;;;;;;;;;3.00;99.90;;;;;;5029320;28;19921;-75
2024/01/15 04:34:35;;;;;;;;;;;2.90;99.90;;;;;;5048622;28;20391;-76
2024/01/15 04:37:01;;;;;;;;;;;2.80;99.90;;;;;;5047149;28;19920;-76
2024/01/15 04:39:26;;;;;;;;;;;2.70;99.90;;;;;;5034925;28;20051;-76
2024/01/15 04:41:52;;;;;;;;;;;2.70;99.90;;;;;;5052280;28;19921;-76
2024/01/15 04:44:18;;;;;;;;;;;2.50;99.90;;;;;;5034303;28;19921;-75
2024/01/15 04:46:43;;;;;;;;;;;2.60;99.90;;;;;;5052083;28;19943;-75
2024/01/15 04:49:09;;;;;;;;;;;2.50;99.90;;;;;;5051633;28;20129;-75
2024/01/15 04:51:35;;;;;;;;;;;2.50;99.90;;;;;;5034767;28;20452;-75
2024/01/15 04:54:01;;;;;;;;;;;2.40;99.90;;;;;;5034363;28;20331;-75
2024/01/15 04:56:26;;;;;;;;;;;2.40;99.90;;;;;;5050846;28;19925;-75
2024/01/15 04:58:52;;;;;;;;;;;2.30;99.90;;;;;;5033979;28;19943;-75
2024/01/15 05:01:17;;;;;;;;;;;2.30;99.90;;;;;;5032050;28;20398;-76
2024/01/15 05:03:43;;;;;;;;;;;3.20;99.90;;;;;;5026133;28;20295;-76
2024/01/15 05:06:09;;;;;;;;;;;2.20;99.90;;;;;;5038589;28;19987;-76
2024/01/15 05:08:34;;;;;;;;;;;2.20;99.90;;;;;;5052199;28;19924;-78
2024/01/15 05:11:00;;;;;;;;;;;2.10;99.90;;;;;;5049137;28;19925;-76
2024/01/15 05:13:25;;;;;;;;;;;2.10;99.90;;;;;;5034457;28;19921;-76
2024/01/15 05:15:51;;;;;;;;;;;2.10;99.90;;;;;;5046668;28;19943;-77
2024/01/15 05:18:16;;;;;;;;;;;2.00;99.90;;;;;;5053998;28;20276;-75
2024/01/15 05:20:42;;;;;;;;;;;2.00;99.90;;;;;;5072166;28;19964;-76
2024/01/15 05:23:08;;;;;;;;;;;2.00;99.90;;;;;;5053637;28;20766;-76
2024/01/15 05:25:33;;;;;;;;;;;2.00;99.90;;;;;;5071327;28;20368;-75
2024/01/15 05:27:59;;;;;;;;;;;2.40;99.90;;;;;;5071224;28;19924;-78
2024/01/15 05:30:25;;;;;;;;;;;2.20;99.90;;;;;;5053444;28;19924;-78
2024/01/15 05:32:50;;;;;;;;;;;2.30;99.90;;;;;;5052669;28;19967;-78
2024/01/15 05:35:16;;;;;;;;;;;2.00;99.90;;;;;;5072288;28;19932;-79
2024/01/15 05:37:43;;;;;;;;;;;2.00;99.90;;;;;;5072233;28;19995;-76
2024/01/15 05:40:08;;;;;;;;;;;2.00;99.90;;;;;;5071001;28;20293;-76
2024/01/15 05:42:34;;;;;;;;;;;2.00;99.90;;;;;;5054349;28;19931;-78
2024/01/15 05:44:59;;;;;;;;;;;2.00;99.90;;;;;;5051900;28;20359;-78
2024/01/15 05:47:25;;;;;;;;;;;2.00;99.90;;;;;;5071447;28;20415;-78
2024/01/15 05:49:51;;;;;;;;;;;1.90;99.90;;;;;;5051688;28;19927;-78
2024/01/15 05:52:16;;;;;;;;;;;2.00;99.90;;;;;;5070330;28;19924;-76
2024/01/15 05:54:42;;;;;;;;;;;1.90;99.90;;;;;;5052394;28;19944;-76
2024/01/15 05:57:07;;;;;;;;;;;1.80;99.90;;;;;;5070979;28;19920;-75
2024/01/15 05:59:36;;;;;;;;;;;1.80;99.90;;;;;;5039095;28;19929;-76
2024/01/15 06:02:01;;;;;;;;;;;1.80;99.90;;;;;;5032076;28;20369;-78
2024/01/15 06:04:27;;;;;;;;;;;1.80;99.90;;;;;;5069446;28;19934;-78
2024/01/15 06:06:52;;;;;;;;;;;2.10;99.90;;;;;;5051907;28;19971;-78
2024/01/15 06:09:18;;;;;;;;;;;2.10;99.90;;;;;;5053413;28;19981;-78
2024/01/15 06:11:43;;;;;;;;;;;3.80;99.90;;;;;;5068693;28;20402;-78
2024/01/15 06:14:09;;;;;;;;;;;1.80;99.90;;;;;;5041948;28;19925;-76
2024/01/15 06:16:34;;;;;;;;;;;2.20;99.90;;;;;;5059585;28;20523;-75
2024/01/15 06:19:00;;;;;;;;;;;1.70;99.90;;;;;;5033851;28;20011;-75
2024/01/15 06:21:25;;;;;;;;;;;3.30;99.90;;;;;;5049714;28;19928;-76
2024/01/15 06:23:51;;;;;;;;;;;1.60;99.90;;;;;;5053375;28;19916;-76
2024/01/15 06:26:16;;;;;;;;;;;1.90;99.90;;;;;;5051845;28;19928;-75
2024/01/15 06:28:42;;;;;;;;;;;1.60;99.90;;;;;;5032058;28;19920;-76
2024/01/15 06:31:07;;;;;;;;;;;1.60;99.90;;;;;;5038334;28;20288;-75
2024/01/15 06:33:33;;;;;;;;;;;1.70;99.90;;;;;;5052097;28;19958;-76
2024/01/15 06:35:58;;;;;;;;;;;1.60;99.90;;;;;;5052297;28;19967;-75
2024/01/15 06:38:25;;;;;;;;;;;1.60;99.90;;;;;;5053138;28;19966;-76
2024/01/15 06:40:51;;;;;;;;;;;1.60;99.90;;;;;;5053032;28;19921;-75
2024/01/15 06:43:17;;;;;;;;;;;1.60;99.90;;;;;;5069547;28;20338;-76
2024/01/15 06:45:43;;;;;;;;;;;1.60;99.90;;;;;;5055519;28;19927;-75
2024/01/15 06:48:09;;;;;;;;;;;1.60;99.90;;;;;;5060889;28;19995;-76
2024/01/15 06:50:34;;;;;;;;;;;1.70;99.90;;;;;;5069669;28;19955;-76
2024/01/15 06:53:00;;;;;;;;;;;1.70;99.90;;;;;;5051541;28;19968;-76
2024/01/15 06:55:25;;;;;;;;;;;1.70;99.90;;;;;;5051280;28;19932;-76
2024/01/15 06:57:51;;;;;;;;;;;1.70;99.90;;;;;;5044801;28;19955;-76
2024/01/15 07:00:17;;;;;;;;;;;1.70;99.90;;;;;;5050853;28;19994;-76
2024/01/15 07:02:43;;;;;;;;;;;1.70;99.90;;;;;;5047392;28;20041;-76
2024/01/15 07:05:08;;;;;;;;;;;1.70;99.90;;;;;;5050449;28;19998;-76
2024/01/15 07:07:34;;;;;;;;;;;1.70;99.90;;;;;;5051987;28;20022;-78
2024/01/15 07:09:59;;;;;;;;;;;1.60;99.90;;;;;;5068403;28;19920;-76
2024/01/15 07:12:25;;;;;;;;;;;1.60;99.90;;;;;;5046675;28;20379;-77
2024/01/15 07:14:50;;;;;;;;;;;2.80;99.90;;;;;;5045986;28;19920;-75
2024/01/15 07:17:16;;;;;;;;;;;1.70;99.90;;;;;;5050148;28;19924;-74
2024/01/15 07:19:41;;;;;;;;;;;1.70;99.90;;;;;;5069772;28;19921;-75
2024/01/15 07:22:07;;;;;;;;;;;1.60;99.90;;;;;;5068521;28;19920;-75
2024/01/15 07:24:35;;;;;;;;;;;1.60;99.90;;;;;;5051465;28;19931;-75
2024/01/15 07:27:01;;;;;;;;;;;1.60;99.90;;;;;;5058461;28;20387;-75
2024/01/15 07:29:26;;;;;;;;;;;1.60;99.90;;;;;;5049192;28;19928;-75
2024/01/15 07:31:52;;;;;;;;;;;1.50;99.90;;;;;;5044285;28;19939;-75
2024/01/15 07:34:18;;;;;;;;;;;1.50;99.90;;;;;;5030507;28;19927;-75
2024/01/15 07:36:44;;;;;;;;;;;3.10;99.90;;;;;;5059035;28;20003;-76
2024/01/15 07:39:10;;;;;;;;;;;1.40;99.90;;;;;;5050506;28;19920;-76
2024/01/15 07:41:35;;;;;;;;;;;1.40;99.90;;;;;;5066699;28;19920;-76
2024/01/15 07:44:01;;;;;;;;;;;1.40;99.90;;;;;;5048772;28;19927;-76
2024/01/15 07:46:27;;;;;;;;;;;1.40;99.90;;;;;;5048970;28;19925;-76
2024/01/15 07:48:56;;;;;;;;;;;1.40;99.90;;;;;;5050056;28;19924;-78
2024/01/15 07:51:22;;;;;;;;;;;1.40;99.90;;;;;;5069086;28;19926;-76
2024/01/15 07:53:47;;;;;;;;;;;1.40;99.90;;;;;;5064006;28;20364;-75
2024/01/15 07:56:13;;;;;;;;;;;1.50;99.90;;;;;;5036122;28;19920;-75
2024/01/15 07:58:38;;;;;;;;;;;1.50;99.90;;;;;;5049959;28;19921;-75
2024/01/15 08:01:04;;;;;;;;;;;1.50;99.90;;;;;;5050169;28;19985;-77
2024/01/15 08:03:30;;;;;;;;;;;1.50;99.90;;;;;;5048817;28;19921;-76
2024/01/15 08:05:57;;;;;;;;;;;1.50;99.90;;;;;;5029569;28;19956;-77
2024/01/15 08:08:23;;;;;;;;;;;1.50;99.90;;;;;;5050209;28;19993;-77
2024/01/15 08:10:48;;;;;;;;;;;2.30;99.90;;;;;;5050333;28;19920;-75
2024/01/15 08:13:14;;;;;;;;;;;1.50;99.90;;;;;;5049330;28;19924;-76
2024/01/15 08:15:40;;;;;;;;;;;1.50;99.90;;;;;;5040599;28;19967;-77
2024/01/15 08:18:06;;;;;;;;;;;1.40;99.90;;;;;;5037060;28;20368;-76
2024/01/15 08:20:31;;;;;;;;;;;1.60;99.90;;;;;;5028727;28;19921;-76
2024/01/15 08:22:57;;;;;;;;;;;1.60;99.90;;;;;;5031323;28;20484;-75
2024/01/15 08:25:22;;;;;;;;;;;1.60;99.90;;;;;;5043174;28;19924;-75
2024/01/15 08:27:48;;;;;;;;;;;1.60;99.90;;;;;;5045563;28;19947;-75
2024/01/15 08:30:14;;;;;;;;;;;1.60;99.90;;;;;;5039357;28;20020;-75
2024/01/15 08:32:42;;;;;;;;;;;1.60;99.90;;;;;;5045971;28;19921;-75
2024/01/15 08:35:08;;;;;;;;;;;1.50;99.90;;;;;;5045881;28;19921;-76
2024/01/15 08:37:33;;;;;;;;;;;1.60;99.90;;;;;;5047159;28;19987;-75
2024/01/15 08:39:59;;;;;;;;;;;1.60;99.90;;;;;;5029533;28;19929;-75
2024/01/15 08:42:24;;;;;;;;;;;1.60;99.90;;;;;;5040912;28;19920;-75
2024/01/15 08:44:50;;;;;;;;;;;1.60;99.90;;;;;;5045885;28;19943;-75
2024/01/15 08:47:16;;;;;;;;;;;1.60;99.90;;;;;;5046670;28;19929;-75
2024/01/15 08:49:43;;;;;;;;;;;1.70;99.90;;;;;;5045448;28;19967;-75
2024/01/15 08:52:08;;;;;;;;;;;1.70;99.90;;;;;;5047314;28;20280;-74
2024/01/15 08:54:34;;;;;;;;;;;1.70;99.90;;;;;;5046399;28;20300;-74
2024/01/15 08:56:59;;;;;;;;;;;2.20;99.90;;;;;;5048173;28;19920;-74
2024/01/15 08:59:25;;;;;;;;;;;1.70;99.90;;;;;;5047855;28;19921;-74
2024/01/15 09:01:56;;;;;;;;;;;1.70;99.90;;;;;;5046094;28;19925;-75
2024/01/15 09:04:22;;;;;;;;;;;1.60;99.90;;;;;;5048342;28;19960;-76
2024/01/15 09:06:48;;;;;;;;;;;2.00;99.90;;;;;;5044556;28;19986;-74
2024/01/15 09:09:14;;;;;;;;;;;1.60;99.90;;;;;;5044931;28;20292;-74
2024/01/15 09:11:40;;;;;;;;;;;1.50;99.90;;;;;;5045898;28;20007;-74
2024/01/15 09:14:06;;;;;;;;;;;1.50;99.90;;;;;;5046399;28;20399;-74
2024/01/15 09:16:31;;;;;;;;;;;1.50;99.90;;;;;;5037941;28;19921;-74
2024/01/15 09:18:57;;;;;;;;;;;1.60;99.90;;;;;;5046178;28;19920;-73
2024/01/15 09:21:24;;;;;;;;;;;1.60;99.90;;;;;;5046345;28;19924;-74
2024/01/15 09:23:50;;;;;;;;;;;1.60;99.90;;;;;;5039582;28;20023;-76
2024/01/15 09:26:16;;;;;;;;;;;1.60;99.90;;;;;;5048528;28;20100;-76
2024/01/15 09:28:41;;;;;;;;;;;1.70;99.90;;;;;;5049643;28;19920;-75
2024/01/15 09:31:07;;;;;;;;;;;1.60;99.90;;;;;;5046834;28;20261;-75
2024/01/15 09:33:32;;;;;;;;;;;1.60;99.90;;;;;;5044924;28;19964;-75
2024/01/15 09:36:01;;;;;;;;;;;1.70;99.90;;;;;;5029876;28;20289;-75
2024/01/15 09:38:27;;;;;;;;;;;1.70;99.90;;;;;;5029984;28;19925;-75
2024/01/15 09:40:52;;;;;;;;;;;1.70;99.90;;;;;;5047631;28;20491;-74
2024/01/15 09:43:18;;;;;;;;;;;1.70;99.90;;;;;;5038802;28;19925;-75
2024/01/15 09:45:44;;;;;;;;;;;1.70;99.90;;;;;;5038480;28;19920;-75
2024/01/15 09:48:09;;;;;;;;;;;1.70;99.90;;;;;;5049115;28;19929;-75
2024/01/15 09:50:35;;;;;;;;;;;1.80;99.90;;;;;;5049522;28;19921;-75
2024/01/15 09:53:01;;;;;;;;;;;1.80;99.90;;;;;;5048665;28;19921;-75
2024/01/15 09:55:26;;;;;;;;;;;1.90;99.90;;;;;;5050756;28;20347;-75
2024/01/15 09:57:53;;;;;;;;;;;2.00;99.90;;;;;;5047966;28;19939;-75
2024/01/15 10:00:19;;;;;;;;;;;2.10;99.90;;;;;;5031285;28;20007;-77
2024/01/15 10:02:45;;;;;;;;;;;3.30;99.90;;;;;;5029777;28;20493;-76
2024/01/15 10:05:11;;;;;;;;;;;2.30;99.90;;;;;;5035432;28;20399;-77
2024/01/15 10:07:37;;;;;;;;;;;2.30;99.90;;;;;;5044501;28;19979;-76
2024/01/15 10:10:07;;;;;;;;;;;2.30;99.90;;;;;;5049130;28;20344;-76
2024/01/15 10:12:32;;;;;;;;;;;2.30;99.90;;;;;;5041967;28;19921;-76
2024/01/15 10:14:58;;;;;;;;;;;2.30;99.90;;;;;;5040825;28;19924;-77
2024/01/15 10:17:24;;;;;;;;;;;2.30;99.90;;;;;;5048412;28;20035;-76
2024/01/15 10:19:49;;;;;;;;;;;2.20;99.90;;;;;;5050244;28;19963;-76
2024/01/15 10:22:15;;;;;;;;;;;2.10;99.90;;;;;;5053606;28;19920;-76
2024/01/15 10:24:41;;;;;;;;;;;2.10;99.90;;;;;;5053361;28;19968;-76
2024/01/15 10:27:07;;;;;;;;;;;2.00;99.90;;;;;;5066475;28;19924;-76
2024/01/15 10:29:33;;;;;;;;;;;2.00;99.90;;;;;;5031822;28;19952;-76
2024/01/15 10:31:59;;;;;;;;;;;2.00;99.90;;;;;;5044867;28;19966;-76
2024/01/15 10:34:24;;;;;;;;;;;1.90;99.90;;;;;;5046368;28;19927;-78
2024/01/15 10:36:55;;;;;;;;;;;2.00;99.90;;;;;;5038123;28;20419;-74
2024/01/15 10:39:30;;;;;;;;;;;2.00;99.90;;;;;;5041933;28;19972;-75
2024/01/15 10:41:55;;;;;;;;;;;2.10;99.90;;;;;;5047334;28;19980;-76
2024/01/15 10:44:21;;;;;;;;;;;2.40;99.90;;;;;;5049480;28;20406;-75
2024/01/15 10:46:47;;;;;;;;;;;2.80;99.90;;;;;;5041914;28;20234;-78
2024/01/15 10:49:13;;;;;;;;;;;3.20;99.90;;;;;;5066765;28;19916;-76
2024/01/15 10:51:38;;;;;;;;;;;3.20;99.90;;;;;;5052763;28;19988;-75
2024/01/15 10:54:04;;;;;;;;;;;3.20;99.90;;;;;;5049041;28;20504;-76
2024/01/15 10:56:31;;;;;;;;;;;3.00;99.90;;;;;;5043298;28;20049;-76
2024/01/15 10:58:57;;;;;;;;;;;2.90;99.90;;;;;;5065147;28;20296;-76
2024/01/15 11:01:23;;;;;;;;;;;2.70;99.90;;;;;;5044777;28;20009;-76
2024/01/15 11:03:49;;;;;;;;;;;2.50;99.90;;;;;;5041078;28;20430;-77
2024/01/15 11:06:21;;;;;;;;;;;2.40;99.90;;;;;;5045862;28;19920;-76
2024/01/15 11:08:49;;;;;;;;;;;2.40;99.90;;;;;;5047054;28;19925;-76
2024/01/15 11:11:15;;;;;;;;;;;2.30;99.90;;;;;;5048506;28;19931;-75
2024/01/15 11:13:43;;;;;;;;;;;2.30;99.90;;;;;;5048050;28;19928;-75
2024/01/15 11:16:12;;;;;;;;;;;2.20;99.90;;;;;;5044863;28;19939;-76
2024/01/15 11:18:41;;;;;;;;;;;2.30;99.90;;;;;;5058772;28;19920;-75
2024/01/15 11:21:18;;;;;;;;;;;2.30;99.90;;;;;;5069294;28;19928;-74
2024/01/15 11:23:46;;;;;;;;;;;2.30;99.90;;;;;;5057945;28;19928;-75
2024/01/15 11:26:31;;;;;;;;;;;2.60;99.90;;;;;;5047863;28;19927;-76
2024/01/15 11:28:58;;;;;;;;;;;2.40;99.90;;;;;;5035249;28;19928;-74
2024/01/15 11:31:50;;;;;;;;;;;2.40;99.90;;;;;;5063183;28;20381;-75
2024/01/15 11:34:15;;;;;;;;;;;2.50;99.90;;;;;;5032171;28;19921;-74
2024/01/15 11:36:53;;;;;;;;;;;2.60;99.90;;;;;;5045728;28;19973;-75
2024/01/15 11:39:39;;;;;;;;;;;2.70;99.90;;;;;;5050823;28;20016;-74
2024/01/15 11:42:04;;;;;;;;;;;2.70;99.90;;;;;;5049208;28;19924;-74
2024/01/15 11:44:30;;;;;;;;;;;2.70;99.90;;;;;;5043753;28;19924;-76
2024/01/15 11:46:59;;;;;;;;;;;2.60;99.90;;;;;;5057082;28;19978;-74
2024/01/15 11:49:43;;;;;;;;;;;2.60;99.90;;;;;;5054582;28;19959;-74
2024/01/15 11:52:11;;;;;;;;;;;2.60;99.90;;;;;;5045319;28;19985;-74
2024/01/15 11:54:37;;;;;;;;;;;3.10;99.90;;;;;;5069056;28;19924;-75
2024/01/15 11:57:07;;;;;;;;;;;2.50;99.90;;;;;;5050529;28;20342;-76
2024/01/15 11:59:33;;;;;;;;;;;2.50;99.90;;;;;;5047218;28;19927;-76
2024/01/15 12:01:59;;;;;;;;;;;2.40;99.90;;;;;;5046223;28;20019;-75
2024/01/15 12:04:24;;;;;;;;;;;2.40;99.90;;;;;;5052194;28;19946;-75
2024/01/15 12:06:49;;;;;;;;;;;2.40;99.90;;;;;;5046654;28;19920;-76
2024/01/15 12:09:18;;;;;;;;;;;2.30;99.90;;;;;;5055777;28;20386;-76
2024/01/15 12:11:49;;;;;;;;;;;2.30;99.90;;;;;;5033603;28;19930;-75
2024/01/15 12:14:14;;;;;;;;;;;2.20;99.90;;;;;;5054307;28;20334;-76
2024/01/15 12:16:40;;;;;;;;;;;2.20;99.90;;;;;;5046790;28;19986;-75
2024/01/15 12:19:06;;;;;;;;;;;2.20;99.90;;;;;;5035418;28;19921;-75
2024/01/15 12:21:31;;;;;;;;;;;2.50;99.90;;;;;;5051772;28;19920;-75
2024/01/15 12:23:57;;;;;;;;;;;2.30;99.90;;;;;;5047996;28;19928;-76
2024/01/15 12:26:22;;;;;;;;;;;2.40;99.90;;;;;;5045535;28;20364;-77
2024/01/15 12:28:49;;;;;;;;;;;2.40;99.90;;;;;;5043187;28;20379;-76
2024/01/15 12:31:15;;;;;;;;;;;2.50;99.90;;;;;;5049428;28;19981;-77
2024/01/15 12:33:40;;;;;;;;;;;2.50;99.90;;;;;;5045033;28;19921;-76
2024/01/15 12:36:06;;;;;;;;;;;2.50;99.90;;;;;;5065539;28;19977;-78
2024/01/15 12:38:31;;;;;;;;;;;2.70;99.90;;;;;;5045770;28;19947;-77
2024/01/15 12:40:57;;;;;;;;;;;2.80;99.90;;;;;;5048839;28;19920;-77
2024/01/15 12:43:22;;;;;;;;;;;3.10;99.90;;;;;;5052860;28;19920;-77
2024/01/15 12:45:48;;;;;;;;;;;3.30;99.90;;;;;;5067553;28;19946;-78
2024/01/15 12:48:15;;;;;;;;;;;3.50;99.90;;;;;;5036390;28;19920;-76
2024/01/15 12:50:42;;;;;;;;;;;3.80;99.90;;;;;;5037002;28;19920;-77
2024/01/15 12:53:08;;;;;;;;;;;3.60;99.90;;;;;;5036329;28;19934;-76
2024/01/15 12:55:34;;;;;;;;;;;3.60;99.90;;;;;;5045890;28;20342;-77
2024/01/15 12:57:59;;;;;;;;;;;3.80;99.90;;;;;;5046917;28;19920;-77
2024/01/15 13:00:25;;;;;;;;;;;4.10;99.90;;;;;;5044567;28;20062;-77
2024/01/15 13:02:51;;;;;;;;;;;4.30;99.90;;;;;;5041587;28;19946;-76
2024/01/15 13:05:16;;;;;;;;;;;3.90;99.90;;;;;;5051392;28;19959;-77
2024/01/15 13:07:42;;;;;;;;;;;3.90;99.90;;;;;;5070143;28;19931;-77
2024/01/15 13:10:09;;;;;;;;;;;3.80;99.90;;;;;;5054116;28;20334;-78
2024/01/15 13:12:34;;;;;;;;;;;4.20;99.90;;;;;;5054308;28;20295;-77
2024/01/15 13:15:03;;;;;;;;;;;3.70;99.90;;;;;;5048099;28;19920;-77
2024/01/15 13:17:28;;;;;;;;;;;3.90;99.90;;;;;;5046456;28;19936;-76
2024/01/15 13:19:54;;;;;;;;;;;3.60;99.90;;;;;;5063559;28;20011;-76
2024/01/15 13:22:19;;;;;;;;;;;3.60;99.90;;;;;;5047890;28;19920;-75
2024/01/15 13:24:45;;;;;;;;;;;3.30;99.90;;;;;;5048816;28;20414;-77
2024/01/15 13:27:11;;;;;;;;;;;3.10;99.90;;;;;;5049579;28;19963;-76
2024/01/15 13:29:37;;;;;;;;;;;2.90;99.90;;;;;;5065989;28;19943;-76
2024/01/15 13:32:03;;;;;;;;;;;3.10;99.90;;;;;;5051683;28;19920;-76
2024/01/15 13:34:28;;;;;;;;;;;2.70;99.90;;;;;;5064133;28;19921;-76
2024/01/15 13:36:54;;;;;;;;;;;2.70;99.90;;;;;;5043667;28;19943;-75
2024/01/15 13:39:20;;;;;;;;;;;2.80;99.90;;;;;;5067635;28;19960;-73
2024/01/15 13:41:46;;;;;;;;;;;2.90;99.90;;;;;;5065449;28;19939;-73
2024/01/15 13:44:12;;;;;;;;;;;3.00;99.90;;;;;;5064714;28;19925;-74
2024/01/15 13:46:38;;;;;;;;;;;3.00;99.90;;;;;;5052382;28;20023;-74
2024/01/15 13:49:05;;;;;;;;;;;3.20;99.90;;;;;;5045467;28;19921;-73
2024/01/15 13:51:31;;;;;;;;;;;3.10;99.90;;;;;;5052599;28;20004;-74
2024/01/15 13:53:57;;;;;;;;;;;3.20;99.90;;;;;;5050448;28;20256;-76
2024/01/15 13:56:22;;;;;;;;;;;3.40;99.90;;;;;;5047883;28;20356;-73
2024/01/15 13:58:48;;;;;;;;;;;2.80;99.90;;;;;;5057181;28;19927;-73
2024/01/15 14:01:13;;;;;;;;;;;2.60;99.90;;;;;;5051601;28;19920;-74
2024/01/15 14:03:39;;;;;;;;;;;2.50;99.90;;;;;;5068350;28;19920;-74
2024/01/15 14:06:08;;;;;;;;;;;2.40;99.90;;;;;;5039847;28;19932;-75
2024/01/15 14:08:35;;;;;;;;;;;2.30;99.90;;;;;;5044671;28;20035;-75
2024/01/15 14:11:00;;;;;;;;;;;2.20;99.90;;;;;;5050830;28;20015;-74
2024/01/15 14:13:26;;;;;;;;;;;2.20;99.90;;;;;;5049085;28;20003;-74
2024/01/15 14:15:51;;;;;;;;;;;2.10;99.90;;;;;;5046934;28;20003;-74
2024/01/15 14:18:17;;;;;;;;;;;2.10;99.90;;;;;;5050896;28;19920;-74
2024/01/15 14:20:43;;;;;;;;;;;2.10;99.90;;;;;;5042448;28;19921;-73
2024/01/15 14:23:09;;;;;;;;;;;2.10;99.90;;;;;;5038518;28;19946;-73
2024/01/15 14:25:34;;;;;;;;;;;2.10;99.90;;;;;;5049740;28;19924;-74